KZR763 VTSP-UAAA
Flight info
| Callsign | KZR763 |
|---|---|
| Flight time | N/A |
| Altitude | 31000 |
| Route | EMRIT1A EMRIT Y99 BKK B346 LPB B218 SAGAG/K0887S0980 A581 BIDRU L888 NIVUX/K0880S1010 L888 SANLI/K0861S1040 L888 XKC A460 RULAD/K0850F360 M610 PIGAL |
| Aircraft | A21N/M-SDE3FGHIRWY/LB1 |
Departure
| Time | 2026-05-08 20:42 |
|---|---|
| Airport | Phuket International Airport (VTSP) |
Arrival
| Time | N/A |
|---|---|
| Airport | Almaty International Airport (UAAA) |
| Time | Latitude | Longitude | Altitude | Speed | Heading |
|---|---|---|---|---|---|
| 2026-05-08 20:21 | 8.10716 | 98.30501 | 37 ft | 0 kts | 105° |
| 2026-05-08 20:33 | 8.10716 | 98.30499 | 37 ft | 1 kts | 105° |
| 2026-05-08 20:33 | 8.10720 | 98.30485 | 36 ft | 2 kts | 105° |
| 2026-05-08 20:33 | 8.10724 | 98.30471 | 35 ft | 2 kts | 105° |
| 2026-05-08 20:34 | 8.10728 | 98.30456 | 35 ft | 2 kts | 105° |
| 2026-05-08 20:34 | 8.10730 | 98.30447 | 34 ft | 2 kts | 101° |
| 2026-05-08 20:34 | 8.10724 | 98.30418 | 34 ft | 2 kts | 56° |
| 2026-05-08 20:35 | 8.10714 | 98.30407 | 34 ft | 2 kts | 36° |
| 2026-05-08 20:35 | 8.10703 | 98.30400 | 34 ft | 0 kts | 18° |
| 2026-05-08 20:35 | 8.10696 | 98.30399 | 34 ft | 1 kts | 14° |
| 2026-05-08 20:35 | 8.10695 | 98.30398 | 34 ft | 0 kts | 14° |
| 2026-05-08 20:39 | 8.10709 | 98.30402 | 34 ft | 3 kts | 15° |
| 2026-05-08 20:39 | 8.10735 | 98.30409 | 34 ft | 5 kts | 15° |
| 2026-05-08 20:39 | 8.10815 | 98.30431 | 33 ft | 14 kts | 15° |
| 2026-05-08 20:39 | 8.10913 | 98.30456 | 33 ft | 14 kts | 15° |
| 2026-05-08 20:40 | 8.11004 | 98.30471 | 33 ft | 11 kts | 347° |
| 2026-05-08 20:40 | 8.11044 | 98.30405 | 31 ft | 12 kts | 278° |
| 2026-05-08 20:40 | 8.11111 | 98.30347 | 28 ft | 14 kts | 353° |
| 2026-05-08 20:40 | 8.11189 | 98.30351 | 28 ft | 8 kts | 52° |
| 2026-05-08 20:41 | 8.11199 | 98.30387 | 29 ft | 0 kts | 85° |
| 2026-05-08 20:41 | 8.11199 | 98.30388 | 29 ft | 0 kts | 85° |
| 2026-05-08 20:41 | 8.11210 | 98.30509 | 31 ft | 48 kts | 85° |
| 2026-05-08 20:41 | 8.11264 | 98.31075 | 42 ft | 112 kts | 84° |
| 2026-05-08 20:42 | 8.11356 | 98.32046 | 91 ft | 164 kts | 84° |
| 2026-05-08 20:42 | 8.11470 | 98.33299 | 350 ft | 186 kts | 86° |
| 2026-05-08 20:42 | 8.11550 | 98.34577 | 977 ft | 186 kts | 86° |
| 2026-05-08 20:42 | 8.11613 | 98.35880 | 1675 ft | 186 kts | 87° |
| 2026-05-08 20:43 | 8.11662 | 98.37153 | 2226 ft | 182 kts | 85° |
| 2026-05-08 20:43 | 8.11804 | 98.38455 | 2462 ft | 193 kts | 82° |
| 2026-05-08 20:43 | 8.11991 | 98.39839 | 2715 ft | 204 kts | 83° |
| 2026-05-08 20:43 | 8.12170 | 98.41296 | 2928 ft | 218 kts | 83° |
| 2026-05-08 20:44 | 8.12345 | 98.42873 | 3125 ft | 234 kts | 84° |
| 2026-05-08 20:44 | 8.12517 | 98.44552 | 3432 ft | 245 kts | 84° |
| 2026-05-08 20:44 | 8.12689 | 98.46321 | 3903 ft | 263 kts | 84° |
| 2026-05-08 20:44 | 8.12862 | 98.48145 | 4830 ft | 262 kts | 84° |
| 2026-05-08 20:45 | 8.13034 | 98.49969 | 5707 ft | 264 kts | 84° |
| 2026-05-08 20:45 | 8.13150 | 98.51201 | 6255 ft | 266 kts | 84° |
| 2026-05-08 20:45 | 8.13380 | 98.53667 | 7309 ft | 270 kts | 84° |
| 2026-05-08 20:45 | 8.13557 | 98.55563 | 8087 ft | 273 kts | 84° |
| 2026-05-08 20:46 | 8.13734 | 98.57463 | 8828 ft | 277 kts | 84° |
| 2026-05-08 20:46 | 8.13913 | 98.59411 | 9575 ft | 281 kts | 86° |
| 2026-05-08 20:46 | 8.13941 | 98.61371 | 10292 ft | 284 kts | 92° |
| 2026-05-08 20:46 | 8.13720 | 98.63372 | 10772 ft | 298 kts | 98° |
| 2026-05-08 20:47 | 8.13362 | 98.65471 | 11044 ft | 308 kts | 99° |
| 2026-05-08 20:47 | 8.12970 | 98.67651 | 11238 ft | 318 kts | 99° |
| 2026-05-08 20:47 | 8.12567 | 98.69888 | 11421 ft | 328 kts | 99° |
| 2026-05-08 20:47 | 8.12161 | 98.72175 | 11592 ft | 338 kts | 99° |
| 2026-05-08 20:48 | 8.11743 | 98.74545 | 11765 ft | 347 kts | 99° |
| 2026-05-08 20:48 | 8.11318 | 98.76961 | 11928 ft | 356 kts | 99° |
| 2026-05-08 20:48 | 8.10925 | 98.79440 | 12097 ft | 364 kts | 97° |
| 2026-05-08 20:48 | 8.10683 | 98.82017 | 12256 ft | 373 kts | 93° |
| 2026-05-08 20:49 | 8.10616 | 98.84679 | 12403 ft | 381 kts | 89° |
| 2026-05-08 20:49 | 8.10638 | 98.87371 | 12550 ft | 388 kts | 89° |
| 2026-05-08 20:49 | 8.10670 | 98.90118 | 12690 ft | 396 kts | 89° |
| 2026-05-08 20:49 | 8.10702 | 98.92806 | 12816 ft | 403 kts | 89° |
| 2026-05-08 20:50 | 8.10909 | 98.95673 | 12974 ft | 408 kts | 78° |
| 2026-05-08 20:50 | 8.11860 | 98.98369 | 13262 ft | 409 kts | 63° |
| 2026-05-08 20:50 | 8.13485 | 99.00716 | 13560 ft | 411 kts | 49° |
| 2026-05-08 20:50 | 8.15450 | 99.02818 | 13860 ft | 412 kts | 47° |
| 2026-05-08 20:51 | 8.17432 | 99.04895 | 14099 ft | 415 kts | 47° |
| 2026-05-08 20:51 | 8.19445 | 99.07006 | 14360 ft | 416 kts | 47° |
| 2026-05-08 20:51 | 8.21450 | 99.09121 | 14631 ft | 417 kts | 47° |
| 2026-05-08 20:51 | 8.23456 | 99.11246 | 14886 ft | 419 kts | 47° |
| 2026-05-08 20:52 | 8.25455 | 99.13371 | 15109 ft | 421 kts | 47° |
| 2026-05-08 20:52 | 8.27487 | 99.15533 | 15318 ft | 423 kts | 47° |
| 2026-05-08 20:52 | 8.29531 | 99.17709 | 15568 ft | 424 kts | 47° |
| 2026-05-08 20:52 | 8.31538 | 99.19844 | 15810 ft | 425 kts | 47° |
| 2026-05-08 20:53 | 8.33578 | 99.22016 | 16037 ft | 426 kts | 47° |
| 2026-05-08 20:53 | 8.35634 | 99.24202 | 16257 ft | 428 kts | 47° |
| 2026-05-08 20:53 | 8.37702 | 99.26400 | 16498 ft | 428 kts | 48° |
| 2026-05-08 20:53 | 8.39757 | 99.28587 | 16708 ft | 430 kts | 48° |
| 2026-05-08 20:54 | 8.41806 | 99.30764 | 16881 ft | 432 kts | 47° |
| 2026-05-08 20:54 | 8.44140 | 99.32700 | 17010 ft | 437 kts | 33° |
| 2026-05-08 20:54 | 8.46766 | 99.33905 | 17193 ft | 441 kts | 19° |
| 2026-05-08 20:54 | 8.49784 | 99.34455 | 17371 ft | 445 kts | 6° |
| 2026-05-08 20:55 | 8.52918 | 99.34619 | 17574 ft | 447 kts | 4° |
| 2026-05-08 20:55 | 8.56022 | 99.34750 | 17731 ft | 449 kts | 4° |
| 2026-05-08 20:55 | 8.59172 | 99.34883 | 17905 ft | 450 kts | 4° |
| 2026-05-08 20:55 | 8.62316 | 99.35026 | 18077 ft | 451 kts | 4° |
| 2026-05-08 20:56 | 8.65474 | 99.35175 | 18248 ft | 452 kts | 5° |
| 2026-05-08 20:56 | 8.68618 | 99.35329 | 18435 ft | 453 kts | 4° |
| 2026-05-08 20:56 | 8.71773 | 99.35486 | 18596 ft | 454 kts | 5° |
| 2026-05-08 20:56 | 8.74939 | 99.35645 | 18753 ft | 455 kts | 4° |
| 2026-05-08 20:57 | 8.78142 | 99.35807 | 18901 ft | 456 kts | 4° |
| 2026-05-08 20:57 | 8.81311 | 99.35965 | 19034 ft | 458 kts | 5° |
| 2026-05-08 20:57 | 8.84527 | 99.36124 | 19169 ft | 459 kts | 5° |
| 2026-05-08 20:57 | 8.87692 | 99.36283 | 19313 ft | 460 kts | 5° |
| 2026-05-08 20:58 | 8.90929 | 99.36445 | 19456 ft | 461 kts | 4° |
| 2026-05-08 20:58 | 8.94137 | 99.36607 | 19597 ft | 462 kts | 4° |
| 2026-05-08 20:58 | 8.97346 | 99.36767 | 19738 ft | 463 kts | 4° |
| 2026-05-08 20:58 | 9.00625 | 99.36931 | 19859 ft | 464 kts | 4° |
| 2026-05-08 20:59 | 9.03857 | 99.37092 | 19997 ft | 465 kts | 4° |
| 2026-05-08 20:59 | 9.07100 | 99.37254 | 20172 ft | 470 kts | 4° |
| 2026-05-08 20:59 | 9.10380 | 99.37418 | 20557 ft | 470 kts | 4° |
| 2026-05-08 20:59 | 9.13664 | 99.37583 | 20942 ft | 471 kts | 4° |
| 2026-05-08 21:00 | 9.16939 | 99.37748 | 21246 ft | 473 kts | 4° |
| 2026-05-08 21:00 | 9.20221 | 99.37938 | 21526 ft | 474 kts | 6° |
| 2026-05-08 21:00 | 9.23525 | 99.38343 | 21800 ft | 475 kts | 11° |
| 2026-05-08 21:00 | 9.26774 | 99.39001 | 22056 ft | 476 kts | 15° |
| 2026-05-08 21:01 | 9.29997 | 99.39905 | 22388 ft | 475 kts | 18° |
| 2026-05-08 21:01 | 9.33127 | 99.40874 | 22740 ft | 474 kts | 18° |
| 2026-05-08 21:01 | 9.36291 | 99.41873 | 23069 ft | 474 kts | 19° |
| 2026-05-08 21:01 | 9.39456 | 99.42868 | 23395 ft | 473 kts | 19° |
| 2026-05-08 21:02 | 9.42624 | 99.43859 | 23731 ft | 472 kts | 18° |
| 2026-05-08 21:02 | 9.45734 | 99.44824 | 24064 ft | 471 kts | 18° |
| 2026-05-08 21:02 | 9.48890 | 99.45803 | 24388 ft | 470 kts | 18° |
| 2026-05-08 21:02 | 9.52026 | 99.46777 | 24687 ft | 470 kts | 18° |
| 2026-05-08 21:03 | 9.55175 | 99.47756 | 24974 ft | 470 kts | 18° |
| 2026-05-08 21:03 | 9.58268 | 99.48717 | 25247 ft | 470 kts | 18° |
| 2026-05-08 21:03 | 9.61405 | 99.49693 | 25517 ft | 469 kts | 18° |
| 2026-05-08 21:03 | 9.64544 | 99.50669 | 25798 ft | 469 kts | 18° |
| 2026-05-08 21:04 | 9.67666 | 99.51641 | 26078 ft | 468 kts | 18° |
| 2026-05-08 21:04 | 9.70761 | 99.52605 | 26351 ft | 467 kts | 18° |
| 2026-05-08 21:04 | 9.73885 | 99.53578 | 26618 ft | 466 kts | 18° |
| 2026-05-08 21:04 | 9.76990 | 99.54545 | 26876 ft | 466 kts | 18° |
| 2026-05-08 21:05 | 9.80089 | 99.55511 | 27124 ft | 465 kts | 18° |
| 2026-05-08 21:05 | 9.83189 | 99.56477 | 27364 ft | 465 kts | 18° |
| 2026-05-08 21:05 | 9.86291 | 99.57443 | 27614 ft | 464 kts | 18° |
| 2026-05-08 21:05 | 9.89377 | 99.58405 | 27861 ft | 463 kts | 18° |
| 2026-05-08 21:06 | 9.92467 | 99.59369 | 28100 ft | 463 kts | 18° |
| 2026-05-08 21:06 | 9.95560 | 99.60333 | 28335 ft | 462 kts | 18° |
| 2026-05-08 21:06 | 9.98632 | 99.61292 | 28572 ft | 461 kts | 18° |
| 2026-05-08 21:06 | 10.01724 | 99.62257 | 28811 ft | 461 kts | 18° |
| 2026-05-08 21:07 | 10.04791 | 99.63213 | 29051 ft | 460 kts | 18° |
| 2026-05-08 21:07 | 10.07833 | 99.64162 | 29264 ft | 459 kts | 18° |
| 2026-05-08 21:07 | 10.10886 | 99.65116 | 29442 ft | 460 kts | 18° |
| 2026-05-08 21:07 | 10.13978 | 99.66081 | 29599 ft | 461 kts | 18° |
| 2026-05-08 21:08 | 10.17035 | 99.67036 | 29771 ft | 461 kts | 18° |
| 2026-05-08 21:08 | 10.20140 | 99.68006 | 29955 ft | 461 kts | 18° |
| 2026-05-08 21:08 | 10.23188 | 99.68958 | 30119 ft | 461 kts | 18° |
| 2026-05-08 21:08 | 10.26281 | 99.69926 | 30262 ft | 462 kts | 18° |
| 2026-05-08 21:09 | 10.29355 | 99.70887 | 30352 ft | 463 kts | 18° |
| 2026-05-08 21:09 | 10.35548 | 99.72823 | 30491 ft | 464 kts | 18° |
| 2026-05-08 21:10 | 10.41713 | 99.74751 | 30671 ft | 465 kts | 18° |
| 2026-05-08 21:10 | 10.47921 | 99.76694 | 30812 ft | 466 kts | 18° |
| 2026-05-08 21:11 | 10.54147 | 99.78644 | 30823 ft | 466 kts | 18° |
| 2026-05-08 21:11 | 10.60366 | 99.80592 | 30821 ft | 465 kts | 18° |
| 2026-05-08 21:12 | 10.66539 | 99.82528 | 30818 ft | 465 kts | 18° |
| 2026-05-08 21:12 | 10.72758 | 99.84479 | 30819 ft | 469 kts | 18° |
| 2026-05-08 21:13 | 10.79041 | 99.86451 | 30817 ft | 473 kts | 18° |
| 2026-05-08 21:13 | 10.85368 | 99.88438 | 30815 ft | 476 kts | 18° |
| 2026-05-08 21:14 | 10.91734 | 99.90434 | 30814 ft | 479 kts | 18° |
| 2026-05-08 21:14 | 10.98129 | 99.92440 | 30816 ft | 480 kts | 18° |
| 2026-05-08 21:15 | 11.04523 | 99.94450 | 30819 ft | 482 kts | 18° |
| 2026-05-08 21:15 | 11.10950 | 99.96473 | 30821 ft | 482 kts | 18° |
| 2026-05-08 21:16 | 11.17370 | 99.98493 | 30826 ft | 483 kts | 18° |
| 2026-05-08 21:16 | 11.23820 | 100.00524 | 30835 ft | 484 kts | 18° |
| 2026-05-08 21:17 | 11.30296 | 100.02566 | 30836 ft | 484 kts | 18° |
| 2026-05-08 21:17 | 11.36728 | 100.04596 | 30835 ft | 484 kts | 18° |
| 2026-05-08 21:18 | 11.43192 | 100.06637 | 30836 ft | 484 kts | 18° |
| 2026-05-08 21:18 | 11.49722 | 100.08339 | 30836 ft | 486 kts | 13° |
| 2026-05-08 21:19 | 11.56421 | 100.09498 | 30836 ft | 486 kts | 10° |
| 2026-05-08 21:19 | 11.63118 | 100.10576 | 30837 ft | 486 kts | 10° |
| 2026-05-08 21:20 | 11.69800 | 100.11658 | 30836 ft | 486 kts | 10° |
| 2026-05-08 21:20 | 11.76489 | 100.12747 | 30837 ft | 487 kts | 11° |
| 2026-05-08 21:21 | 11.83203 | 100.13841 | 30836 ft | 488 kts | 11° |
| 2026-05-08 21:21 | 11.89948 | 100.14938 | 30836 ft | 488 kts | 11° |
| 2026-05-08 21:22 | 11.96651 | 100.16032 | 30836 ft | 489 kts | 10° |
| 2026-05-08 21:22 | 12.03411 | 100.17136 | 30835 ft | 490 kts | 11° |
| 2026-05-08 21:23 | 12.10139 | 100.18235 | 30834 ft | 489 kts | 11° |
| 2026-05-08 21:23 | 12.16771 | 100.19320 | 30837 ft | 488 kts | 11° |
| 2026-05-08 21:24 | 12.23103 | 100.20356 | 30835 ft | 489 kts | 11° |
| 2026-05-08 21:24 | 12.29570 | 100.21415 | 30835 ft | 489 kts | 11° |
| 2026-05-08 21:25 | 12.36306 | 100.22519 | 30832 ft | 489 kts | 11° |
| 2026-05-08 21:25 | 12.43039 | 100.23622 | 30829 ft | 490 kts | 11° |
| 2026-05-08 21:26 | 12.49804 | 100.24732 | 30826 ft | 490 kts | 11° |
| 2026-05-08 21:26 | 12.56540 | 100.25837 | 30826 ft | 490 kts | 11° |
| 2026-05-08 21:27 | 12.63268 | 100.26941 | 30829 ft | 489 kts | 11° |
| 2026-05-08 21:27 | 12.70049 | 100.28056 | 30830 ft | 490 kts | 11° |
| 2026-05-08 21:28 | 12.76754 | 100.29160 | 30829 ft | 490 kts | 11° |
| 2026-05-08 21:28 | 12.83504 | 100.30270 | 30831 ft | 490 kts | 11° |
| 2026-05-08 21:29 | 12.90243 | 100.31380 | 30834 ft | 490 kts | 11° |
| 2026-05-08 21:29 | 12.97027 | 100.32503 | 30835 ft | 490 kts | 12° |
| 2026-05-08 21:30 | 13.03671 | 100.34040 | 30835 ft | 488 kts | 17° |
| 2026-05-08 21:30 | 13.10201 | 100.35974 | 30835 ft | 487 kts | 18° |
| 2026-05-08 21:31 | 13.16768 | 100.37945 | 30836 ft | 488 kts | 18° |
| 2026-05-08 21:31 | 13.23317 | 100.39893 | 30836 ft | 488 kts | 18° |
| 2026-05-08 21:32 | 13.29841 | 100.41832 | 30836 ft | 488 kts | 18° |
| 2026-05-08 21:32 | 13.36407 | 100.43788 | 30836 ft | 488 kts | 18° |
| 2026-05-08 21:33 | 13.42913 | 100.45728 | 30837 ft | 487 kts | 18° |
| 2026-05-08 21:33 | 13.49470 | 100.47687 | 30837 ft | 487 kts | 18° |
| 2026-05-08 21:34 | 13.56023 | 100.49644 | 30841 ft | 488 kts | 17° |
| 2026-05-08 21:34 | 13.62609 | 100.51612 | 30840 ft | 488 kts | 18° |
| 2026-05-08 21:35 | 13.69146 | 100.53569 | 30843 ft | 488 kts | 17° |
| 2026-05-08 21:35 | 13.75736 | 100.55543 | 30845 ft | 488 kts | 17° |
| 2026-05-08 21:36 | 13.82267 | 100.57497 | 30847 ft | 487 kts | 17° |
| 2026-05-08 21:36 | 13.88697 | 100.59049 | 30845 ft | 488 kts | 11° |
| 2026-05-08 21:37 | 13.95438 | 100.59936 | 30844 ft | 489 kts | 5° |
| 2026-05-08 21:37 | 14.02288 | 100.60321 | 30842 ft | 490 kts | 4° |
| 2026-05-08 21:38 | 14.09097 | 100.60661 | 30841 ft | 490 kts | 4° |
| 2026-05-08 21:38 | 14.15967 | 100.61011 | 30841 ft | 490 kts | 4° |
| 2026-05-08 21:39 | 14.22769 | 100.61362 | 30841 ft | 489 kts | 4° |
| 2026-05-08 21:39 | 14.29622 | 100.61717 | 30842 ft | 489 kts | 4° |
| 2026-05-08 21:40 | 14.36424 | 100.62071 | 30845 ft | 489 kts | 4° |
| 2026-05-08 21:40 | 14.43216 | 100.62425 | 30848 ft | 489 kts | 4° |
| 2026-05-08 21:41 | 14.53439 | 100.62958 | 30849 ft | 488 kts | 4° |
| 2026-05-08 21:41 | 14.60258 | 100.63313 | 30853 ft | 488 kts | 4° |
| 2026-05-08 21:42 | 14.67041 | 100.63667 | 30855 ft | 488 kts | 4° |
| 2026-05-08 21:42 | 14.73838 | 100.64022 | 30855 ft | 488 kts | 4° |
| 2026-05-08 21:43 | 14.80630 | 100.64376 | 30856 ft | 488 kts | 4° |
| 2026-05-08 21:43 | 14.87449 | 100.64734 | 30857 ft | 488 kts | 4° |
| 2026-05-08 21:44 | 14.94238 | 100.65089 | 30859 ft | 487 kts | 4° |
| 2026-05-08 21:44 | 15.01021 | 100.65444 | 30859 ft | 487 kts | 4° |
| 2026-05-08 21:45 | 15.07808 | 100.65801 | 30865 ft | 486 kts | 4° |
| 2026-05-08 21:45 | 15.14585 | 100.66157 | 30866 ft | 487 kts | 4° |
| 2026-05-08 21:46 | 15.21405 | 100.66580 | 30867 ft | 487 kts | 6° |
| 2026-05-08 21:46 | 15.28112 | 100.67633 | 30871 ft | 486 kts | 13° |
| 2026-05-08 21:47 | 15.34622 | 100.69447 | 30877 ft | 486 kts | 19° |
| 2026-05-08 21:47 | 15.41035 | 100.71812 | 30883 ft | 486 kts | 21° |
| 2026-05-08 21:48 | 15.47359 | 100.74201 | 30886 ft | 486 kts | 21° |
| 2026-05-08 21:48 | 15.53747 | 100.76608 | 30885 ft | 486 kts | 21° |
| 2026-05-08 21:49 | 15.60110 | 100.79002 | 30879 ft | 486 kts | 21° |
| 2026-05-08 21:49 | 15.66488 | 100.81403 | 30874 ft | 487 kts | 21° |
| 2026-05-08 21:50 | 15.72883 | 100.83810 | 30873 ft | 487 kts | 21° |
| 2026-05-08 21:50 | 15.79240 | 100.86204 | 30873 ft | 487 kts | 21° |
| 2026-05-08 21:51 | 15.85627 | 100.88612 | 30873 ft | 486 kts | 21° |
| 2026-05-08 21:51 | 15.91985 | 100.91008 | 30874 ft | 486 kts | 21° |
| 2026-05-08 21:52 | 15.98345 | 100.93408 | 30875 ft | 486 kts | 21° |
| 2026-05-08 21:52 | 16.04725 | 100.95818 | 30880 ft | 487 kts | 21° |
| 2026-05-08 21:53 | 16.11089 | 100.98223 | 31208 ft | 482 kts | 21° |
| 2026-05-08 21:53 | 16.14239 | 100.99416 | 31803 ft | 471 kts | 20° |
| 2026-05-08 21:53 | 16.17292 | 101.00571 | 32168 ft | 466 kts | 20° |
| 2026-05-08 21:54 | 16.20350 | 101.01730 | 32310 ft | 467 kts | 20° |
| 2026-05-08 21:54 | 16.23406 | 101.02887 | 32395 ft | 468 kts | 20° |
| 2026-05-08 21:54 | 16.26480 | 101.04051 | 32511 ft | 469 kts | 20° |
| 2026-05-08 21:54 | 16.29541 | 101.05210 | 32682 ft | 469 kts | 20° |
| 2026-05-08 21:55 | 16.32648 | 101.06387 | 32899 ft | 468 kts | 20° |
| 2026-05-08 21:55 | 16.35691 | 101.07540 | 32939 ft | 470 kts | 20° |
| 2026-05-08 21:56 | 16.44993 | 101.11066 | 32966 ft | 477 kts | 20° |
| 2026-05-08 21:56 | 16.48146 | 101.12270 | 33200 ft | 474 kts | 19° |
| 2026-05-08 21:56 | 16.51190 | 101.13429 | 33714 ft | 466 kts | 19° |
| 2026-05-08 21:57 | 16.57339 | 101.15760 | 33680 ft | 472 kts | 19° |
| 2026-05-08 21:57 | 16.63528 | 101.18114 | 33659 ft | 476 kts | 19° |
| 2026-05-08 21:58 | 16.69872 | 101.20342 | 33641 ft | 478 kts | 16° |
| 2026-05-08 21:58 | 16.76251 | 101.22250 | 33629 ft | 478 kts | 15° |
| 2026-05-08 21:59 | 16.82673 | 101.24156 | 33788 ft | 477 kts | 15° |
| 2026-05-08 21:59 | 16.89066 | 101.26060 | 33825 ft | 477 kts | 15° |
| 2026-05-08 22:00 | 16.95462 | 101.27971 | 33835 ft | 478 kts | 15° |
| 2026-05-08 22:00 | 17.01859 | 101.29885 | 33845 ft | 478 kts | 15° |
| 2026-05-08 22:01 | 17.08278 | 101.31805 | 33863 ft | 478 kts | 15° |
| 2026-05-08 22:01 | 17.14719 | 101.33731 | 33907 ft | 478 kts | 15° |
| 2026-05-08 22:02 | 17.21117 | 101.35635 | 34088 ft | 477 kts | 15° |
| 2026-05-08 22:02 | 17.27479 | 101.37531 | 34255 ft | 476 kts | 15° |
| 2026-05-08 22:03 | 17.33872 | 101.39443 | 34345 ft | 473 kts | 15° |
| 2026-05-08 22:03 | 17.37034 | 101.40391 | 34096 ft | 470 kts | 15° |
| 2026-05-08 22:03 | 17.40164 | 101.41328 | 33381 ft | 470 kts | 15° |
| 2026-05-08 22:03 | 17.43334 | 101.42279 | 32328 ft | 475 kts | 15° |
| 2026-05-08 22:04 | 17.46530 | 101.43238 | 31567 ft | 481 kts | 15° |
| 2026-05-08 22:04 | 17.49747 | 101.44205 | 31127 ft | 485 kts | 15° |
| 2026-05-08 22:04 | 17.53001 | 101.45185 | 31001 ft | 487 kts | 15° |
| 2026-05-08 22:05 | 17.59565 | 101.47160 | 30988 ft | 488 kts | 15° |
| 2026-05-08 22:05 | 17.66119 | 101.49136 | 30972 ft | 488 kts | 15° |
| 2026-05-08 22:06 | 17.72658 | 101.51108 | 30953 ft | 488 kts | 15° |
| 2026-05-08 22:06 | 17.79207 | 101.53066 | 30939 ft | 487 kts | 15° |
| 2026-05-08 22:07 | 17.85752 | 101.55016 | 30941 ft | 488 kts | 15° |
| 2026-05-08 22:07 | 17.92285 | 101.56967 | 30944 ft | 488 kts | 15° |
| 2026-05-08 22:08 | 17.98827 | 101.58923 | 30947 ft | 488 kts | 15° |
| 2026-05-08 22:08 | 18.05367 | 101.60883 | 30951 ft | 488 kts | 15° |
| 2026-05-08 22:09 | 18.11976 | 101.62865 | 30948 ft | 488 kts | 15° |
| 2026-05-08 22:09 | 18.18518 | 101.64827 | 30946 ft | 488 kts | 15° |
| 2026-05-08 22:10 | 18.25106 | 101.66805 | 30949 ft | 488 kts | 15° |
| 2026-05-08 22:10 | 18.31682 | 101.68780 | 30955 ft | 489 kts | 15° |
| 2026-05-08 22:11 | 18.38227 | 101.70748 | 30955 ft | 489 kts | 15° |
| 2026-05-08 22:11 | 18.44810 | 101.72729 | 30959 ft | 490 kts | 15° |
| 2026-05-08 22:12 | 18.51410 | 101.74719 | 30956 ft | 491 kts | 15° |
| 2026-05-08 22:12 | 18.57993 | 101.76703 | 30955 ft | 491 kts | 15° |
| 2026-05-08 22:13 | 18.64553 | 101.78681 | 30961 ft | 491 kts | 15° |
| 2026-05-08 22:13 | 18.71175 | 101.80681 | 30967 ft | 491 kts | 15° |
| 2026-05-08 22:14 | 18.77755 | 101.82669 | 30971 ft | 492 kts | 15° |
| 2026-05-08 22:14 | 18.84349 | 101.84663 | 30979 ft | 492 kts | 15° |
| 2026-05-08 22:15 | 18.90940 | 101.86658 | 30987 ft | 492 kts | 15° |
| 2026-05-08 22:15 | 18.97547 | 101.88660 | 30994 ft | 493 kts | 15° |
| 2026-05-08 22:16 | 19.04185 | 101.90672 | 31003 ft | 493 kts | 15° |
| 2026-05-08 22:16 | 19.10808 | 101.92683 | 31023 ft | 494 kts | 15° |
| 2026-05-08 22:17 | 19.17443 | 101.94697 | 31052 ft | 493 kts | 15° |
| 2026-05-08 22:17 | 19.24070 | 101.96713 | 31088 ft | 493 kts | 15° |
| 2026-05-08 22:18 | 19.30724 | 101.98737 | 31114 ft | 494 kts | 15° |
| 2026-05-08 22:18 | 19.37382 | 102.00764 | 31107 ft | 494 kts | 15° |
| 2026-05-08 22:19 | 19.44036 | 102.02793 | 31077 ft | 495 kts | 14° |
| 2026-05-08 22:19 | 19.50664 | 102.04814 | 31048 ft | 495 kts | 14° |
| 2026-05-08 22:20 | 19.57305 | 102.06841 | 31028 ft | 495 kts | 14° |
| 2026-05-08 22:20 | 19.63928 | 102.08865 | 31017 ft | 495 kts | 14° |
| 2026-05-08 22:21 | 19.70556 | 102.10893 | 31008 ft | 495 kts | 14° |
| 2026-05-08 22:21 | 19.77183 | 102.12924 | 30996 ft | 495 kts | 14° |
| 2026-05-08 22:22 | 19.83810 | 102.14892 | 30996 ft | 493 kts | 10° |
| 2026-05-08 22:22 | 19.90621 | 102.15556 | 31005 ft | 488 kts | 355° |
| 2026-05-08 22:23 | 19.97288 | 102.14455 | 31009 ft | 483 kts | 341° |
| 2026-05-08 22:23 | 20.03473 | 102.12032 | 31010 ft | 482 kts | 335° |
| 2026-05-08 22:24 | 20.09652 | 102.09369 | 31024 ft | 482 kts | 335° |
| 2026-05-08 22:24 | 20.15921 | 102.06675 | 31037 ft | 481 kts | 335° |
| 2026-05-08 22:25 | 20.22115 | 102.04028 | 31045 ft | 481 kts | 335° |
| 2026-05-08 22:25 | 20.28346 | 102.01366 | 31047 ft | 481 kts | 335° |
| 2026-05-08 22:26 | 20.34567 | 101.98708 | 31045 ft | 481 kts | 335° |
| 2026-05-08 22:26 | 20.40788 | 101.96050 | 31047 ft | 481 kts | 335° |
| 2026-05-08 22:27 | 20.46998 | 101.93395 | 31045 ft | 481 kts | 335° |
| 2026-05-08 22:27 | 20.53203 | 101.90738 | 31045 ft | 481 kts | 335° |
| 2026-05-08 22:28 | 20.59420 | 101.88076 | 31056 ft | 481 kts | 335° |
| 2026-05-08 22:28 | 20.65666 | 101.85396 | 31077 ft | 481 kts | 335° |
| 2026-05-08 22:29 | 20.71843 | 101.82746 | 31243 ft | 480 kts | 335° |
| 2026-05-08 22:29 | 20.78053 | 101.80078 | 31398 ft | 480 kts | 335° |
| 2026-05-08 22:30 | 20.84272 | 101.77406 | 31571 ft | 480 kts | 334° |
| 2026-05-08 22:30 | 20.87357 | 101.76079 | 31681 ft | 480 kts | 334° |
| 2026-05-08 22:30 | 20.90492 | 101.74727 | 31801 ft | 479 kts | 334° |
| 2026-05-08 22:30 | 20.93558 | 101.73406 | 31907 ft | 479 kts | 334° |
| 2026-05-08 22:31 | 20.96659 | 101.72070 | 32022 ft | 478 kts | 334° |
| 2026-05-08 22:31 | 20.99749 | 101.70737 | 32142 ft | 477 kts | 334° |
| 2026-05-08 22:31 | 21.02831 | 101.69408 | 32167 ft | 477 kts | 334° |
| 2026-05-08 22:32 | 21.08999 | 101.66746 | 32174 ft | 476 kts | 334° |
| 2026-05-08 22:32 | 21.15156 | 101.64084 | 32176 ft | 476 kts | 334° |
| 2026-05-08 22:33 | 21.21286 | 101.61440 | 32181 ft | 477 kts | 334° |
| 2026-05-08 22:33 | 21.27471 | 101.58799 | 32190 ft | 477 kts | 334° |
| 2026-05-08 22:34 | 21.33634 | 101.56167 | 32196 ft | 476 kts | 334° |
| 2026-05-08 22:34 | 21.39791 | 101.53532 | 32199 ft | 477 kts | 334° |
| 2026-05-08 22:35 | 21.45987 | 101.50876 | 32203 ft | 477 kts | 334° |
| 2026-05-08 22:35 | 21.52146 | 101.48233 | 32197 ft | 477 kts | 334° |
| 2026-05-08 22:36 | 21.58314 | 101.45584 | 32200 ft | 477 kts | 334° |
| 2026-05-08 22:36 | 21.64493 | 101.42928 | 32213 ft | 477 kts | 333° |
| 2026-05-08 22:37 | 21.70656 | 101.40276 | 32219 ft | 477 kts | 333° |
| 2026-05-08 22:37 | 21.76832 | 101.37614 | 32233 ft | 477 kts | 333° |
| 2026-05-08 22:38 | 21.83006 | 101.34952 | 32211 ft | 477 kts | 333° |
| 2026-05-08 22:38 | 21.89192 | 101.32280 | 32191 ft | 478 kts | 333° |
| 2026-05-08 22:39 | 21.95373 | 101.29616 | 32173 ft | 478 kts | 333° |
| 2026-05-08 22:39 | 22.01549 | 101.26961 | 32161 ft | 478 kts | 333° |
| 2026-05-08 22:40 | 22.07718 | 101.24303 | 32167 ft | 478 kts | 333° |
| 2026-05-08 22:40 | 22.13962 | 101.21610 | 32173 ft | 478 kts | 333° |
| 2026-05-08 22:41 | 22.20148 | 101.18940 | 32179 ft | 478 kts | 333° |
| 2026-05-08 22:41 | 22.26328 | 101.16267 | 32185 ft | 477 kts | 333° |
| 2026-05-08 22:42 | 22.32469 | 101.13610 | 32190 ft | 478 kts | 333° |
| 2026-05-08 22:42 | 22.38668 | 101.10925 | 32198 ft | 477 kts | 333° |
| 2026-05-08 22:43 | 22.44827 | 101.08256 | 32207 ft | 476 kts | 332° |
| 2026-05-08 22:43 | 22.50954 | 101.05596 | 32220 ft | 477 kts | 332° |
| 2026-05-08 22:44 | 22.57126 | 101.02915 | 32225 ft | 476 kts | 332° |
| 2026-05-08 22:44 | 22.63291 | 101.00234 | 32234 ft | 475 kts | 332° |
| 2026-05-08 22:45 | 22.69423 | 100.97581 | 32251 ft | 477 kts | 333° |
| 2026-05-08 22:45 | 22.75782 | 100.95364 | 32265 ft | 482 kts | 338° |
| 2026-05-08 22:46 | 22.82279 | 100.93478 | 32274 ft | 481 kts | 339° |
| 2026-05-08 22:46 | 22.88748 | 100.91621 | 32290 ft | 480 kts | 339° |
| 2026-05-08 22:47 | 22.95222 | 100.89754 | 32309 ft | 480 kts | 339° |
| 2026-05-08 22:47 | 23.01670 | 100.87891 | 32329 ft | 480 kts | 338° |
| 2026-05-08 22:48 | 23.08128 | 100.86018 | 32334 ft | 480 kts | 339° |
| 2026-05-08 22:48 | 23.14629 | 100.84131 | 32333 ft | 480 kts | 338° |
| 2026-05-08 22:49 | 23.21068 | 100.82262 | 32333 ft | 481 kts | 339° |
| 2026-05-08 22:49 | 23.30783 | 100.79437 | 32335 ft | 481 kts | 338° |
| 2026-05-08 22:50 | 23.37250 | 100.77554 | 32332 ft | 481 kts | 338° |
| 2026-05-08 22:50 | 23.43716 | 100.75671 | 32318 ft | 481 kts | 338° |
| 2026-05-08 22:51 | 23.50207 | 100.73777 | 32302 ft | 481 kts | 338° |
| 2026-05-08 22:51 | 23.56675 | 100.71889 | 32304 ft | 481 kts | 338° |
| 2026-05-08 22:52 | 23.63117 | 100.70005 | 32315 ft | 480 kts | 338° |
| 2026-05-08 22:52 | 23.69634 | 100.68098 | 32321 ft | 481 kts | 338° |
| 2026-05-08 22:53 | 23.76101 | 100.66202 | 32328 ft | 481 kts | 338° |
| 2026-05-08 22:53 | 23.82564 | 100.64307 | 32328 ft | 481 kts | 338° |
| 2026-05-08 22:54 | 23.89005 | 100.62417 | 32318 ft | 481 kts | 338° |
| 2026-05-08 22:54 | 23.95513 | 100.60506 | 32314 ft | 480 kts | 337° |
| 2026-05-08 22:55 | 24.01951 | 100.58610 | 32311 ft | 480 kts | 338° |
| 2026-05-08 22:55 | 24.08411 | 100.56706 | 32304 ft | 481 kts | 338° |
| 2026-05-08 22:56 | 24.14921 | 100.54790 | 32298 ft | 481 kts | 338° |
| 2026-05-08 22:56 | 24.21415 | 100.52891 | 32289 ft | 482 kts | 338° |
| 2026-05-08 22:57 | 24.27888 | 100.50996 | 32282 ft | 482 kts | 338° |
| 2026-05-08 22:57 | 24.34376 | 100.49093 | 32284 ft | 482 kts | 338° |
| 2026-05-08 22:58 | 24.40857 | 100.47189 | 32292 ft | 482 kts | 337° |
| 2026-05-08 22:58 | 24.47356 | 100.45277 | 32299 ft | 481 kts | 338° |
| 2026-05-08 22:59 | 24.53863 | 100.43359 | 32306 ft | 482 kts | 338° |
| 2026-05-08 22:59 | 24.60337 | 100.41451 | 32321 ft | 482 kts | 337° |
| 2026-05-08 23:00 | 24.66802 | 100.39539 | 32330 ft | 481 kts | 337° |